createdAt,value
2023-03-18T00:00:27.193Z,99.85
2023-03-18T00:02:55.391Z,104.80
2023-03-18T00:05:23.551Z,99.53
2023-03-18T00:07:57.895Z,94.35
2023-03-18T00:10:26.692Z,95.88
2023-03-18T00:12:56.074Z,97.93
2023-03-18T00:21:04.692Z,99.60
2023-03-18T00:23:34.494Z,97.60
2023-03-18T00:26:17.270Z,97.13
2023-03-18T00:29:00.799Z,88.88
2023-03-18T00:31:52.150Z,85.95
2023-03-18T00:34:22.219Z,94.22
2023-03-18T00:39:33.433Z,90.55
2023-03-18T00:42:22.436Z,88.30
2023-03-18T00:44:54.246Z,93.68
2023-03-18T00:47:23.553Z,96.65
2023-03-18T00:50:08.628Z,93.22
2023-03-18T00:52:49.209Z,92.90
2023-03-18T00:55:49.922Z,92.45
2023-03-18T00:58:19.603Z,100.00
2023-03-18T01:01:01.485Z,89.55
2023-03-18T01:03:30.805Z,86.88
2023-03-18T01:06:16.127Z,85.47
2023-03-18T01:08:45.552Z,87.13
2023-03-18T01:11:16.263Z,77.00
2023-03-18T01:13:48.349Z,85.85
2023-03-18T01:16:17.250Z,74.85
2023-03-18T01:24:23.659Z,72.53
2023-03-18T01:29:42.691Z,74.45
2023-03-18T01:37:37.508Z,77.03
2023-03-18T01:40:07.526Z,66.40
2023-03-18T01:42:52.453Z,71.18
2023-03-18T01:45:39.325Z,70.32
2023-03-18T01:48:14.712Z,68.57
2023-03-18T01:50:46.371Z,68.03
2023-03-18T01:56:20.404Z,78.47
2023-03-18T01:58:56.788Z,79.18
2023-03-18T02:02:04.054Z,75.50
2023-03-18T02:04:46.308Z,77.13
2023-03-18T02:07:33.467Z,65.00
2023-03-18T02:16:19.569Z,65.07
2023-03-18T02:19:11.540Z,61.58
2023-03-18T02:21:49.401Z,64.45
2023-03-18T02:36:12.553Z,60.25
2023-03-18T02:41:38.203Z,62.55
2023-03-18T02:44:11.428Z,61.45
2023-03-18T02:47:06.355Z,58.88
2023-03-18T02:49:49.697Z,62.70
2023-03-18T02:52:22.570Z,63.25
2023-03-18T02:54:52.731Z,57.63
2023-03-18T02:57:21.186Z,64.63
2023-03-18T02:59:51.024Z,62.20
2023-03-18T03:02:27.396Z,56.85
2023-03-18T03:05:02.908Z,66.18
2023-03-18T03:07:31.552Z,59.17
2023-03-18T03:12:46.217Z,59.67
2023-03-18T03:15:15.463Z,61.70
2023-03-18T03:20:28.009Z,62.90
2023-03-18T03:23:00.871Z,58.30
2023-03-18T03:25:33.516Z,51.83
2023-03-18T03:28:12.620Z,57.28
2023-03-18T03:30:51.152Z,56.72
2023-03-18T03:33:24.308Z,59.40
2023-03-18T03:35:58.981Z,56.38
2023-03-18T03:38:28.923Z,54.17
2023-03-18T03:46:36.523Z,54.38
2023-03-18T03:49:08.867Z,53.15
2023-03-18T03:51:37.288Z,53.25
2023-03-18T03:54:10.574Z,52.28
2023-03-18T03:59:41.365Z,54.45
2023-03-18T04:02:11.269Z,52.55
2023-03-18T04:04:39.670Z,55.47
2023-03-18T04:07:15.920Z,51.67
2023-03-18T04:09:51.888Z,61.08
2023-03-18T04:15:11.446Z,55.92
2023-03-18T04:17:52.339Z,53.45
2023-03-18T04:20:33.040Z,57.25
2023-03-18T04:23:11.704Z,61.92
2023-03-18T04:31:15.833Z,56.50
2023-03-18T04:36:29.853Z,55.53
2023-03-18T04:39:04.676Z,60.17
2023-03-18T04:41:47.067Z,52.30
2023-03-18T04:44:24.236Z,56.35
2023-03-18T04:46:57.313Z,53.13
2023-03-18T04:49:46.136Z,49.63
2023-03-18T04:52:14.449Z,51.70
2023-03-18T04:54:45.244Z,56.70
2023-03-18T04:57:13.648Z,50.78
2023-03-18T04:59:42.171Z,47.88
2023-03-18T05:02:13.549Z,49.30
2023-03-18T05:04:44.897Z,53.40
2023-03-18T05:07:17.362Z,46.92
2023-03-18T05:09:46.578Z,50.53
2023-03-18T05:12:16.162Z,49.67
2023-03-18T05:14:50.732Z,49.67
2023-03-18T05:20:11.121Z,46.13
2023-03-18T05:28:14.368Z,41.65
2023-03-18T05:30:52.905Z,40.40
2023-03-18T05:33:23.135Z,43.47
2023-03-18T05:35:51.683Z,42.70
2023-03-18T05:38:21.054Z,42.95
2023-03-18T05:40:49.422Z,43.50
2023-03-18T05:43:22.793Z,43.80
2023-03-18T05:45:56.333Z,44.15
2023-03-18T05:48:28.942Z,43.70
2023-03-18T05:54:08.041Z,42.92
2023-03-18T05:56:53.168Z,38.47
2023-03-18T05:59:24.834Z,37.47
2023-03-18T06:02:02.244Z,41.03
2023-03-18T06:07:28.857Z,38.97
2023-03-18T06:10:07.744Z,39.15
2023-03-18T06:15:24.830Z,39.80
2023-03-18T06:17:58.439Z,39.53
2023-03-18T06:20:29.777Z,38.40
2023-03-18T06:22:58.764Z,38.17
2023-03-18T06:25:31.141Z,43.50
2023-03-18T06:28:04.035Z,35.45
2023-03-18T06:30:35.919Z,37.03
2023-03-18T06:33:17.221Z,46.47
2023-03-18T06:36:01.011Z,42.30
2023-03-18T06:38:33.190Z,37.17
2023-03-18T06:41:02.414Z,39.88
2023-03-18T06:43:53.234Z,35.38
2023-03-18T06:49:06.523Z,36.70
2023-03-18T06:51:35.056Z,34.05
2023-03-18T06:56:58.457Z,39.20
2023-03-18T06:59:29.436Z,43.65
2023-03-18T07:02:18.944Z,39.25
2023-03-18T07:15:59.110Z,38.95
2023-03-18T07:21:19.556Z,44.58
2023-03-18T07:23:47.733Z,45.10
2023-03-18T07:26:18.038Z,42.75
2023-03-18T07:28:46.459Z,43.80
2023-03-18T07:31:15.609Z,37.72
2023-03-18T07:33:44.124Z,40.35
2023-03-18T07:36:16.331Z,38.22
2023-03-18T07:44:30.317Z,39.00
2023-03-18T08:04:16.885Z,39.33
2023-03-18T08:06:52.618Z,36.63
2023-03-18T08:09:29.305Z,36.45
2023-03-18T08:11:57.512Z,39.97
2023-03-18T08:14:25.867Z,40.28
2023-03-18T08:17:57.805Z,38.17
2023-03-18T08:21:13.861Z,36.17
2023-03-18T08:23:42.745Z,37.47
2023-03-18T08:26:41.050Z,36.80
2023-03-18T08:34:36.170Z,40.55
2023-03-18T08:42:35.566Z,49.33
2023-03-18T08:47:51.811Z,40.38
2023-03-18T08:53:09.767Z,40.78
2023-03-18T08:56:07.438Z,36.58
2023-03-18T09:01:29.523Z,37.63
2023-03-18T09:04:01.346Z,40.85
2023-03-18T09:06:31.815Z,36.35
2023-03-18T09:09:02.962Z,40.33
2023-03-18T09:14:17.481Z,36.35
2023-03-18T09:24:56.161Z,37.15
2023-03-18T09:27:24.214Z,38.13
2023-03-18T09:29:52.537Z,39.63
2023-03-18T09:32:40.851Z,43.38
2023-03-18T09:38:04.217Z,35.67
2023-03-18T09:43:28.765Z,39.05
2023-03-18T09:46:16.097Z,41.85
2023-03-18T09:52:10.260Z,35.60
2023-03-18T09:54:45.045Z,35.75
2023-03-18T09:57:23.279Z,35.70
2023-03-18T10:00:17.796Z,37.03
2023-03-18T10:02:55.038Z,37.13
2023-03-18T10:05:35.105Z,37.97
2023-03-18T10:08:17.185Z,40.67
2023-03-18T10:10:47.228Z,42.28
2023-03-18T10:13:23.988Z,35.03
2023-03-18T10:21:44.120Z,38.15
2023-03-18T10:24:50.380Z,37.42
2023-03-18T10:27:48.484Z,41.38
2023-03-18T10:33:50.058Z,35.13
2023-03-18T10:36:27.274Z,35.08
2023-03-18T10:39:03.423Z,38.47
2023-03-18T10:41:36.372Z,38.58
2023-03-18T10:44:27.911Z,38.05
2023-03-18T10:53:55.971Z,38.63
2023-03-18T10:56:32.178Z,37.00
2023-03-18T10:59:18.430Z,37.15
2023-03-18T11:02:04.906Z,39.53
2023-03-18T11:04:47.736Z,34.58
2023-03-18T11:07:27.725Z,35.83
2023-03-18T11:13:09.314Z,37.95
2023-03-18T11:16:07.647Z,39.08
2023-03-18T11:18:38.894Z,39.17
2023-03-18T11:21:19.552Z,36.90
2023-03-18T11:24:30.128Z,37.10
2023-03-18T11:27:05.039Z,40.50
2023-03-18T11:35:57.371Z,40.72
2023-03-18T11:38:40.555Z,40.03
2023-03-18T11:44:36.790Z,40.20
2023-03-18T11:47:32.724Z,42.75
2023-03-18T11:53:12.595Z,37.65
2023-03-18T11:56:04.012Z,45.00
2023-03-18T11:59:17.731Z,43.35
2023-03-18T12:02:10.269Z,41.60
2023-03-18T12:04:57.463Z,47.92
2023-03-18T12:07:43.293Z,44.88
2023-03-18T12:10:18.714Z,41.55
2023-03-18T12:12:59.012Z,45.88
2023-03-18T12:16:29.542Z,45.85
2023-03-18T12:19:23.004Z,50.22
2023-03-18T12:25:01.569Z,45.85
2023-03-18T12:27:35.369Z,47.10
2023-03-18T12:30:54.799Z,45.92
2023-03-18T12:39:20.871Z,45.15
2023-03-18T12:45:16.872Z,45.10
2023-03-18T12:48:01.575Z,41.38
2023-03-18T12:50:45.943Z,40.83
2023-03-18T12:53:51.052Z,43.17
2023-03-18T12:56:24.744Z,38.42
2023-03-18T12:59:10.026Z,52.88
2023-03-18T13:01:53.926Z,48.15
2023-03-18T13:04:29.444Z,47.83
2023-03-18T13:07:05.193Z,51.75
2023-03-18T13:09:51.355Z,44.95
2023-03-18T13:12:35.057Z,51.58
2023-03-18T13:15:32.072Z,48.47
2023-03-18T13:18:30.932Z,48.00
2023-03-18T13:21:22.744Z,46.40
2023-03-18T13:26:57.938Z,55.17
2023-03-18T13:29:59.756Z,50.85
2023-03-18T13:35:33.289Z,54.15
2023-03-18T13:38:41.762Z,53.22
2023-03-18T13:44:49.880Z,56.25
2023-03-18T13:47:24.008Z,45.33
2023-03-18T13:53:07.676Z,54.72
2023-03-18T13:56:00.127Z,52.08
2023-03-18T14:01:32.445Z,53.35
2023-03-18T14:04:08.792Z,59.28
2023-03-18T14:09:36.407Z,51.60
2023-03-18T14:15:46.404Z,56.42
2023-03-18T14:18:28.041Z,53.08
2023-03-18T14:21:01.906Z,61.00
2023-03-18T14:29:12.514Z,53.28
2023-03-18T14:41:15.638Z,52.95
2023-03-18T14:50:16.316Z,47.28
2023-03-18T15:04:22.837Z,60.95
2023-03-18T15:12:41.406Z,48.45
2023-03-18T15:15:19.145Z,52.80
2023-03-18T15:18:05.350Z,58.95
2023-03-18T15:23:27.380Z,57.30
2023-03-18T15:25:56.430Z,55.83
2023-03-18T15:28:25.668Z,50.87
2023-03-18T15:31:00.800Z,51.05
2023-03-18T15:33:37.792Z,55.17
2023-03-18T15:39:03.592Z,53.72
2023-03-18T15:41:34.248Z,53.00
2023-03-18T15:52:49.117Z,54.13
2023-03-18T16:06:42.308Z,51.65
2023-03-18T16:12:32.629Z,51.75
2023-03-18T16:20:49.232Z,52.22
2023-03-18T16:23:21.458Z,46.33
2023-03-18T16:26:12.050Z,55.40
2023-03-18T16:28:43.240Z,51.25
2023-03-18T16:31:15.286Z,56.78
2023-03-18T16:33:46.472Z,54.33
2023-03-18T16:36:32.425Z,53.67
2023-03-18T16:39:00.430Z,56.58
2023-03-18T16:41:28.517Z,54.30
2023-03-18T16:43:56.642Z,53.78
2023-03-18T16:46:25.601Z,47.67
2023-03-18T16:48:54.238Z,52.78
2023-03-18T16:51:23.543Z,54.03
2023-03-18T16:53:51.937Z,54.13
2023-03-18T16:56:32.783Z,56.25
2023-03-18T16:59:01.846Z,57.53
2023-03-18T17:04:32.905Z,57.35
2023-03-18T17:07:03.941Z,55.28
2023-03-18T17:09:33.408Z,58.35
2023-03-18T17:31:46.750Z,53.58
2023-03-18T17:37:03.634Z,57.17
2023-03-18T17:39:44.829Z,54.60
2023-03-18T17:45:36.378Z,56.17
2023-03-18T17:48:27.516Z,58.05
2023-03-18T17:51:07.525Z,53.30
2023-03-18T17:53:48.428Z,54.95
2023-03-18T18:02:25.968Z,54.22
2023-03-18T18:04:54.000Z,59.30
2023-03-18T18:07:23.938Z,53.35
2023-03-18T18:09:52.064Z,48.00
2023-03-18T18:12:25.556Z,52.90
2023-03-18T18:14:53.546Z,47.35
2023-03-18T18:17:22.160Z,47.92
2023-03-18T18:19:50.298Z,55.40
2023-03-18T18:22:23.922Z,52.20
2023-03-18T18:25:06.034Z,53.78
2023-03-18T18:28:03.165Z,52.03
2023-03-18T18:38:42.040Z,56.42
2023-03-18T18:43:55.847Z,52.58
2023-03-18T18:46:25.299Z,50.40
2023-03-18T18:48:54.058Z,54.05
2023-03-18T18:51:24.119Z,58.70
2023-03-18T18:56:32.475Z,57.70
2023-03-18T18:59:00.907Z,52.13
2023-03-18T19:01:29.007Z,56.00
2023-03-18T19:03:57.068Z,50.65
2023-03-18T19:12:16.591Z,58.58
2023-03-18T19:14:58.877Z,54.83
2023-03-18T19:17:27.575Z,53.47
2023-03-18T19:20:02.975Z,57.05
2023-03-18T19:22:57.129Z,53.10
2023-03-18T19:31:41.216Z,52.00
2023-03-18T19:34:21.590Z,50.80
2023-03-18T19:42:25.191Z,54.08
2023-03-18T19:44:53.341Z,60.05
2023-03-18T19:47:27.302Z,53.97
2023-03-18T19:49:55.926Z,56.17
2023-03-18T19:52:28.929Z,59.72
2023-03-18T19:54:58.208Z,66.97
2023-03-18T19:57:29.132Z,56.90
2023-03-18T20:05:45.179Z,61.55
2023-03-18T20:11:19.916Z,61.15
2023-03-18T20:16:33.100Z,55.55
2023-03-18T20:22:00.295Z,58.15
2023-03-18T20:24:31.899Z,56.72
2023-03-18T20:27:25.503Z,56.75
2023-03-18T20:29:54.346Z,56.88
2023-03-18T20:32:27.026Z,57.30
2023-03-18T20:40:35.414Z,56.90
2023-03-18T20:45:55.536Z,60.67
2023-03-18T20:54:33.726Z,61.53
2023-03-18T20:59:44.370Z,60.17
2023-03-18T21:02:31.398Z,56.00
2023-03-18T21:05:01.275Z,56.45
2023-03-18T21:07:31.949Z,55.78
2023-03-18T21:10:00.312Z,61.33
2023-03-18T21:12:29.137Z,54.80
2023-03-18T21:14:57.299Z,63.33
2023-03-18T21:23:09.682Z,57.72
2023-03-18T21:25:45.641Z,63.53
2023-03-18T21:28:18.249Z,57.65
2023-03-18T21:30:52.572Z,60.22
2023-03-18T21:36:16.020Z,60.35
2023-03-18T21:39:01.687Z,60.03
2023-03-18T21:42:00.436Z,62.72
2023-03-18T21:44:51.991Z,58.70
2023-03-18T21:52:52.762Z,59.40
2023-03-18T21:55:25.859Z,57.50
2023-03-18T21:58:07.462Z,52.28
2023-03-18T22:00:38.316Z,55.15
2023-03-18T22:08:48.592Z,57.50
2023-03-18T22:14:04.099Z,63.25
2023-03-18T22:16:33.341Z,57.45
2023-03-18T22:19:01.728Z,53.83
2023-03-18T22:21:29.849Z,56.63
2023-03-18T22:24:00.279Z,55.92
2023-03-18T22:29:14.711Z,61.60
2023-03-18T22:31:44.738Z,60.33
2023-03-18T22:40:26.233Z,64.00
2023-03-18T22:45:44.065Z,60.35
2023-03-18T23:05:43.276Z,61.80
2023-03-18T23:08:14.657Z,57.15
2023-03-18T23:13:30.578Z,59.90
2023-03-18T23:15:58.818Z,66.78
2023-03-18T23:18:26.846Z,63.92
2023-03-18T23:20:54.989Z,70.50
2023-03-18T23:23:26.696Z,59.15
2023-03-18T23:28:55.026Z,64.38
2023-03-18T23:31:23.079Z,61.65
2023-03-18T23:33:52.238Z,60.85
2023-03-18T23:36:20.317Z,67.65
2023-03-18T23:41:41.824Z,66.95
2023-03-18T23:47:17.314Z,65.82
2023-03-18T23:52:33.155Z,64.38
2023-03-18T23:58:17.657Z,73.15
